createdAt,value
2022-10-19T00:01:00.316Z,1.87
2022-10-19T00:03:27.259Z,2.40
2022-10-19T00:05:54.194Z,2.00
2022-10-19T00:08:21.153Z,0.90
2022-10-19T00:10:48.254Z,1.80
2022-10-19T00:13:15.272Z,1.30
2022-10-19T00:15:42.702Z,2.33
2022-10-19T00:18:09.672Z,2.57
2022-10-19T00:20:37.504Z,4.80
2022-10-19T00:23:04.595Z,3.47
2022-10-19T00:25:32.078Z,6.53
2022-10-19T00:27:59.048Z,5.73
2022-10-19T00:30:26.012Z,1.83
2022-10-19T00:32:52.963Z,4.37
2022-10-19T00:35:19.916Z,3.43
2022-10-19T00:37:46.911Z,1.97
2022-10-19T00:40:14.172Z,3.77
2022-10-19T00:42:41.089Z,1.37
2022-10-19T00:45:17.890Z,2.33
2022-10-19T00:47:45.744Z,4.03
2022-10-19T00:50:15.221Z,1.33
2022-10-19T00:52:42.430Z,1.53
2022-10-19T00:55:10.759Z,1.70
2022-10-19T00:57:37.882Z,1.53
2022-10-19T01:00:08.343Z,2.27
2022-10-19T01:02:36.355Z,2.83
2022-10-19T01:05:04.989Z,3.53
2022-10-19T01:07:33.231Z,1.17
2022-10-19T01:10:01.458Z,2.10
2022-10-19T01:12:52.468Z,2.13
2022-10-19T01:15:40.912Z,2.20
2022-10-19T01:18:15.770Z,3.17
2022-10-19T01:21:01.269Z,2.33
2022-10-19T01:23:56.656Z,6.23
2022-10-19T01:26:59.542Z,2.07
2022-10-19T01:29:35.688Z,3.10
2022-10-19T01:32:13.689Z,1.27
2022-10-19T01:35:04.951Z,4.60
2022-10-19T01:37:43.531Z,0.53
2022-10-19T01:40:29.341Z,1.70
2022-10-19T01:43:02.836Z,2.73
2022-10-19T01:45:42.153Z,5.03
2022-10-19T01:48:25.324Z,3.50
2022-10-19T01:50:55.805Z,1.07
2022-10-19T01:53:24.596Z,2.00
2022-10-19T01:55:53.125Z,3.70
2022-10-19T01:58:28.878Z,1.33
2022-10-19T02:00:58.993Z,3.20
2022-10-19T02:03:27.088Z,4.93
2022-10-19T02:05:56.566Z,3.23
2022-10-19T02:08:35.107Z,2.20
2022-10-19T02:11:04.183Z,3.13
2022-10-19T02:13:32.521Z,1.07
2022-10-19T02:16:03.915Z,1.97
2022-10-19T02:18:35.727Z,3.17
2022-10-19T02:21:04.603Z,2.17
2022-10-19T02:23:31.583Z,0.97
2022-10-19T02:25:59.350Z,1.70
2022-10-19T02:28:27.160Z,0.40
2022-10-19T02:30:54.457Z,0.47
2022-10-19T02:33:21.538Z,1.47
2022-10-19T02:35:48.755Z,1.23
2022-10-19T02:38:19.972Z,1.20
2022-10-19T02:41:12.344Z,1.40
2022-10-19T02:43:42.095Z,3.40
2022-10-19T02:46:34.880Z,1.27
2022-10-19T02:49:04.240Z,2.17
2022-10-19T02:51:38.024Z,2.20
2022-10-19T02:54:07.038Z,0.93
2022-10-19T02:56:35.499Z,3.10
2022-10-19T02:59:03.568Z,2.60
2022-10-19T03:01:30.584Z,0.80
2022-10-19T03:03:57.711Z,0.50
2022-10-19T03:06:24.672Z,4.20
2022-10-19T03:08:51.623Z,0.80
2022-10-19T03:11:18.570Z,1.40
2022-10-19T03:13:45.566Z,2.00
2022-10-19T03:16:13.760Z,1.43
2022-10-19T03:18:40.803Z,2.83
2022-10-19T03:21:10.496Z,1.60
2022-10-19T03:23:38.498Z,2.30
2022-10-19T03:26:08.757Z,4.20
2022-10-19T03:28:38.453Z,2.37
2022-10-19T03:31:05.672Z,0.73
2022-10-19T03:33:32.630Z,2.07
2022-10-19T03:36:24.828Z,2.13
2022-10-19T03:39:00.468Z,1.60
2022-10-19T03:41:29.549Z,0.40
2022-10-19T03:43:57.332Z,2.83
2022-10-19T03:46:24.929Z,1.87
2022-10-19T03:48:52.180Z,2.23
2022-10-19T03:51:27.727Z,0.67
2022-10-19T03:53:59.878Z,0.50
2022-10-19T03:56:28.752Z,1.47
2022-10-19T03:58:57.458Z,0.40
2022-10-19T04:01:39.172Z,2.00
2022-10-19T04:15:35.505Z,2.23
2022-10-19T04:18:02.772Z,0.83
2022-10-19T04:20:29.696Z,1.67
2022-10-19T04:22:56.632Z,0.77
2022-10-19T04:25:23.606Z,1.17
2022-10-19T04:27:50.540Z,2.20
2022-10-19T04:30:17.602Z,0.63
2022-10-19T04:32:44.522Z,2.40
2022-10-19T04:35:11.441Z,0.70
2022-10-19T04:37:38.384Z,2.20
2022-10-19T04:40:06.167Z,1.80
2022-10-19T04:42:33.208Z,1.10
2022-10-19T04:45:00.142Z,0.30
2022-10-19T04:47:28.671Z,1.20
2022-10-19T04:49:55.613Z,1.17
2022-10-19T04:52:22.603Z,1.03
2022-10-19T04:54:49.552Z,0.30
2022-10-19T04:57:16.690Z,0.37
2022-10-19T04:59:43.636Z,2.57
2022-10-19T05:02:10.570Z,3.63
2022-10-19T05:04:40.703Z,1.43
2022-10-19T05:07:09.920Z,2.33
2022-10-19T05:09:40.381Z,1.60
2022-10-19T05:12:07.488Z,0.43
2022-10-19T05:14:36.746Z,2.30
2022-10-19T05:17:05.999Z,1.30
2022-10-19T05:19:32.930Z,1.97
2022-10-19T05:21:59.935Z,1.80
2022-10-19T05:24:26.871Z,2.33
2022-10-19T05:26:53.852Z,1.27
2022-10-19T05:29:20.868Z,1.30
2022-10-19T05:31:47.796Z,1.20
2022-10-19T05:34:14.761Z,2.43
2022-10-19T05:36:41.758Z,2.67
2022-10-19T05:39:16.960Z,0.67
2022-10-19T05:41:45.626Z,0.63
2022-10-19T05:44:19.444Z,0.73
2022-10-19T05:46:46.958Z,1.67
2022-10-19T05:49:15.946Z,0.40
2022-10-19T05:51:43.164Z,3.03
2022-10-19T05:54:11.531Z,2.63
2022-10-19T05:56:39.516Z,0.77
2022-10-19T05:59:08.636Z,2.93
2022-10-19T06:01:36.513Z,1.80
2022-10-19T06:04:04.566Z,1.43
2022-10-19T06:06:31.916Z,0.43
2022-10-19T06:08:59.164Z,3.23
2022-10-19T06:11:39.128Z,0.30
2022-10-19T06:14:13.408Z,0.50
2022-10-19T06:16:40.688Z,1.10
2022-10-19T06:19:07.697Z,1.30
2022-10-19T06:21:35.195Z,0.33
2022-10-19T06:24:04.568Z,1.97
2022-10-19T06:26:34.104Z,0.93
2022-10-19T06:29:02.076Z,0.47
2022-10-19T06:31:30.662Z,1.17
2022-10-19T06:33:57.847Z,0.60
2022-10-19T06:36:27.282Z,0.40
2022-10-19T06:38:54.301Z,0.70
2022-10-19T06:41:21.359Z,2.40
2022-10-19T06:43:52.929Z,0.60
2022-10-19T06:46:23.273Z,1.10
2022-10-19T06:48:55.657Z,3.20
2022-10-19T06:51:23.149Z,0.50
2022-10-19T06:53:52.881Z,0.90
2022-10-19T06:56:24.785Z,3.07
2022-10-19T06:58:52.040Z,0.83
2022-10-19T07:01:19.966Z,0.40
2022-10-19T07:03:47.045Z,0.80
2022-10-19T07:06:14.059Z,2.67
2022-10-19T07:08:42.615Z,0.83
2022-10-19T07:11:12.444Z,1.40
2022-10-19T07:13:39.584Z,1.33
2022-10-19T07:16:19.517Z,0.43
2022-10-19T07:18:49.804Z,0.93
2022-10-19T07:21:17.559Z,1.80
2022-10-19T07:23:47.166Z,1.80
2022-10-19T07:26:23.990Z,2.87
2022-10-19T07:28:51.711Z,0.73
2022-10-19T07:31:21.255Z,2.33
2022-10-19T07:33:53.592Z,2.07
2022-10-19T07:36:21.417Z,0.33
2022-10-19T07:38:48.464Z,0.30
2022-10-19T07:41:18.136Z,1.87
2022-10-19T07:43:46.559Z,0.83
2022-10-19T07:46:26.292Z,1.13
2022-10-19T07:48:53.803Z,3.60
2022-10-19T07:51:22.120Z,1.87
2022-10-19T07:53:49.496Z,0.47
2022-10-19T07:56:21.790Z,0.87
2022-10-19T07:58:51.095Z,2.73
2022-10-19T08:01:20.720Z,1.80
2022-10-19T08:06:36.643Z,1.33
2022-10-19T08:09:03.861Z,0.30
2022-10-19T08:11:34.294Z,3.07
2022-10-19T08:14:05.140Z,1.20
2022-10-19T08:16:37.385Z,2.03
2022-10-19T08:19:09.786Z,0.73
2022-10-19T08:21:38.297Z,3.67
2022-10-19T08:24:05.805Z,1.42
2022-10-19T08:26:36.163Z,0.30
2022-10-19T08:29:05.295Z,1.47
2022-10-19T08:31:32.795Z,0.70
2022-10-19T08:33:59.810Z,0.40
2022-10-19T08:36:27.631Z,1.63
2022-10-19T08:38:54.660Z,2.57
2022-10-19T08:41:41.819Z,2.87
2022-10-19T08:44:42.442Z,1.17
2022-10-19T08:47:44.727Z,0.50
2022-10-19T08:50:25.571Z,2.67
2022-10-19T08:53:00.579Z,1.70
2022-10-19T08:55:43.523Z,1.50
2022-10-19T08:58:34.432Z,1.17
2022-10-19T09:01:07.073Z,1.47
2022-10-19T09:03:55.426Z,1.77
2022-10-19T09:06:44.948Z,0.30
2022-10-19T09:09:14.792Z,1.20
2022-10-19T09:11:50.935Z,0.50
2022-10-19T09:14:41.027Z,1.30
2022-10-19T09:17:14.188Z,2.00
2022-10-19T09:19:41.294Z,0.30
2022-10-19T09:22:25.431Z,3.13
2022-10-19T09:24:55.573Z,1.38
2022-10-19T09:27:25.833Z,1.35
2022-10-19T09:29:59.425Z,1.35
2022-10-19T09:32:35.210Z,1.27
2022-10-19T09:35:07.145Z,0.85
2022-10-19T09:37:40.393Z,1.52
2022-10-19T09:40:11.612Z,0.85
2022-10-19T09:42:39.187Z,0.20
2022-10-19T09:45:37.922Z,0.47
2022-10-19T09:48:25.650Z,0.45
2022-10-19T09:51:00.084Z,0.57
2022-10-19T09:53:28.215Z,1.20
2022-10-19T09:56:03.255Z,1.80
2022-10-19T09:58:33.041Z,1.20
2022-10-19T10:01:02.421Z,0.33
2022-10-19T10:03:40.468Z,0.50
2022-10-19T10:06:14.765Z,1.63
2022-10-19T10:08:59.062Z,1.13
2022-10-19T10:11:38.319Z,1.95
2022-10-19T10:14:17.367Z,0.40
2022-10-19T10:16:44.510Z,3.13
2022-10-19T10:19:16.661Z,2.78
2022-10-19T10:21:52.760Z,0.55
2022-10-19T10:24:21.971Z,4.13
2022-10-19T10:26:54.635Z,1.17
2022-10-19T10:29:32.844Z,2.78
2022-10-19T10:31:59.723Z,4.35
2022-10-19T10:34:51.028Z,0.55
2022-10-19T10:37:22.003Z,0.75
2022-10-19T10:39:53.962Z,0.30
2022-10-19T10:42:31.110Z,0.47
2022-10-19T10:44:59.393Z,0.20
2022-10-19T10:47:27.827Z,0.35
2022-10-19T10:50:06.531Z,1.00
2022-10-19T10:52:34.682Z,0.25
2022-10-19T10:55:01.828Z,0.57
2022-10-19T10:57:33.119Z,0.38
2022-10-19T11:00:12.383Z,0.40
2022-10-19T11:03:01.273Z,1.30
2022-10-19T11:05:44.809Z,0.22
2022-10-19T11:08:33.564Z,0.43
2022-10-19T11:11:09.191Z,0.32
2022-10-19T11:13:59.131Z,0.10
2022-10-19T11:16:33.599Z,0.10
2022-10-19T11:19:12.878Z,1.33
2022-10-19T11:21:45.673Z,0.00
2022-10-19T11:24:21.644Z,1.60
2022-10-19T11:26:57.763Z,1.00
2022-10-19T11:29:30.444Z,0.65
2022-10-19T11:31:58.183Z,1.00
2022-10-19T11:34:59.260Z,0.00
2022-10-19T11:38:14.212Z,0.20
2022-10-19T11:40:54.185Z,1.02
2022-10-19T11:43:51.596Z,0.70
2022-10-19T11:46:42.251Z,0.52
2022-10-19T11:49:35.422Z,1.10
2022-10-19T11:52:16.099Z,0.20
2022-10-19T11:55:05.455Z,0.75
2022-10-19T11:57:58.018Z,1.70
2022-10-19T12:00:38.698Z,0.20
2022-10-19T12:03:40.434Z,0.10
2022-10-19T12:06:36.053Z,0.20
2022-10-19T12:09:08.850Z,0.47
2022-10-19T12:12:07.311Z,0.10
2022-10-19T12:14:40.504Z,0.20
2022-10-19T12:17:27.496Z,0.50
2022-10-19T12:19:58.554Z,0.45
2022-10-19T12:22:28.418Z,1.70
2022-10-19T12:24:57.334Z,0.75
2022-10-19T12:27:37.620Z,1.77
2022-10-19T12:30:17.576Z,0.80
2022-10-19T12:33:26.064Z,0.38
2022-10-19T12:36:08.053Z,1.65
2022-10-19T12:39:15.090Z,0.35
2022-10-19T12:42:13.053Z,0.20
2022-10-19T12:44:53.851Z,0.22
2022-10-19T12:47:25.095Z,2.67
2022-10-19T12:49:55.148Z,0.68
2022-10-19T12:52:45.010Z,1.15
2022-10-19T12:55:12.109Z,0.43
2022-10-19T12:57:40.254Z,0.73
2022-10-19T13:00:20.531Z,0.68
2022-10-19T13:02:57.076Z,1.33
2022-10-19T13:05:27.690Z,0.30
2022-10-19T13:07:55.091Z,1.65
2022-10-19T13:10:27.172Z,1.67
2022-10-19T13:12:54.979Z,0.60
2022-10-19T13:15:33.899Z,0.35
2022-10-19T13:18:11.927Z,0.93
2022-10-19T13:20:41.702Z,1.75
2022-10-19T13:23:08.595Z,1.30
2022-10-19T13:25:39.834Z,4.50
2022-10-19T13:28:06.763Z,1.58
2022-10-19T13:30:37.219Z,3.50
2022-10-19T13:33:28.420Z,0.43
2022-10-19T13:36:02.540Z,1.40
2022-10-19T13:39:06.180Z,0.77
2022-10-19T13:41:38.935Z,2.00
2022-10-19T13:44:16.155Z,1.27
2022-10-19T13:47:01.747Z,0.87
2022-10-19T13:50:03.482Z,0.50
2022-10-19T13:53:07.362Z,0.53
2022-10-19T13:56:19.573Z,0.90
2022-10-19T13:59:14.268Z,0.98
2022-10-19T14:02:18.018Z,2.83
2022-10-19T14:05:26.603Z,0.50
2022-10-19T14:08:15.308Z,1.43
2022-10-19T14:10:59.989Z,0.80
2022-10-19T14:13:28.470Z,0.50
2022-10-19T14:15:58.698Z,1.37
2022-10-19T14:18:34.954Z,2.00
2022-10-19T14:21:07.742Z,0.43
2022-10-19T14:23:36.990Z,0.45
2022-10-19T14:26:05.808Z,1.63
2022-10-19T14:28:33.801Z,1.27
2022-10-19T14:31:01.794Z,0.40
2022-10-19T14:33:39.262Z,0.53
2022-10-19T14:36:08.059Z,0.37
2022-10-19T14:38:38.644Z,0.60
2022-10-19T14:41:06.803Z,0.30
2022-10-19T14:43:34.885Z,1.20
2022-10-19T14:46:08.023Z,1.57
2022-10-19T14:48:45.485Z,0.87
2022-10-19T14:51:30.385Z,0.83
2022-10-19T14:54:13.059Z,0.80
2022-10-19T14:56:55.429Z,0.83
2022-10-19T14:59:36.256Z,0.93
2022-10-19T15:02:20.231Z,0.77
2022-10-19T15:04:47.718Z,1.50
2022-10-19T15:07:28.917Z,1.47
2022-10-19T15:09:59.602Z,1.53
2022-10-19T15:12:40.115Z,1.97
2022-10-19T15:15:15.324Z,1.13
2022-10-19T15:17:56.564Z,2.47
2022-10-19T15:20:43.916Z,2.87
2022-10-19T15:23:33.143Z,0.90
2022-10-19T15:26:17.128Z,1.63
2022-10-19T15:28:44.937Z,0.60
2022-10-19T15:31:21.120Z,0.83
2022-10-19T15:33:59.535Z,2.83
2022-10-19T15:36:27.728Z,2.97
2022-10-19T15:39:32.976Z,0.93
2022-10-19T15:42:38.235Z,2.83
2022-10-19T15:45:38.231Z,2.10
2022-10-19T15:48:11.176Z,5.23
2022-10-19T15:50:43.585Z,3.37
2022-10-19T15:53:10.640Z,1.93
2022-10-19T15:55:37.545Z,2.87
2022-10-19T15:58:04.504Z,4.83
2022-10-19T16:00:32.489Z,6.30
2022-10-19T16:02:59.560Z,1.73
2022-10-19T16:05:26.597Z,3.80
2022-10-19T16:07:53.858Z,3.93
2022-10-19T16:10:26.499Z,6.87
2022-10-19T16:12:53.863Z,5.83
2022-10-19T16:15:22.921Z,4.20
2022-10-19T16:17:55.777Z,5.73
2022-10-19T16:20:23.470Z,4.87
2022-10-19T16:22:50.848Z,7.20
2022-10-19T16:25:18.189Z,5.23
2022-10-19T16:27:45.199Z,4.97
2022-10-19T16:30:12.888Z,3.13
2022-10-19T16:35:12.554Z,4.73
2022-10-19T16:37:39.449Z,6.00
2022-10-19T16:40:07.212Z,3.33
2022-10-19T16:42:35.013Z,5.27
2022-10-19T16:45:02.237Z,5.50
2022-10-19T16:47:29.228Z,10.50
2022-10-19T16:50:00.959Z,6.63
2022-10-19T16:52:28.979Z,8.27
2022-10-19T16:54:56.752Z,11.63
2022-10-19T16:57:23.757Z,11.10
2022-10-19T17:02:24.254Z,10.33
2022-10-19T17:04:51.213Z,9.03
2022-10-19T17:07:18.580Z,8.40
2022-10-19T17:09:45.631Z,7.40
2022-10-19T17:12:13.211Z,6.67
2022-10-19T17:14:41.862Z,3.80
2022-10-19T17:17:09.931Z,3.20
2022-10-19T17:19:37.325Z,3.40
2022-10-19T17:22:05.234Z,5.43
2022-10-19T17:24:32.360Z,5.43
2022-10-19T17:27:03.233Z,11.57
2022-10-19T17:29:30.698Z,9.20
2022-10-19T17:31:58.468Z,9.83
2022-10-19T17:34:25.462Z,10.30
2022-10-19T17:36:52.471Z,12.80
2022-10-19T17:39:25.712Z,14.03
2022-10-19T17:42:01.461Z,16.17
2022-10-19T17:44:30.703Z,9.37
2022-10-19T17:46:57.911Z,18.87
2022-10-19T17:49:24.943Z,18.80
2022-10-19T17:51:53.696Z,31.53
2022-10-19T17:54:20.747Z,15.53
2022-10-19T17:56:47.838Z,27.37
2022-10-19T17:59:14.909Z,25.70
2022-10-19T18:01:41.913Z,42.20
2022-10-19T18:04:08.980Z,20.90
2022-10-19T18:06:37.862Z,21.37
2022-10-19T18:09:07.274Z,16.37
2022-10-19T18:11:45.214Z,15.10
2022-10-19T18:14:13.148Z,12.43
2022-10-19T18:16:44.767Z,11.53
2022-10-19T18:19:13.288Z,8.87
2022-10-19T18:21:43.930Z,5.80
2022-10-19T18:24:19.641Z,6.53
2022-10-19T18:26:50.891Z,5.40
2022-10-19T18:29:28.572Z,5.30
2022-10-19T18:31:55.748Z,6.60
2022-10-19T18:34:25.468Z,8.83
2022-10-19T18:36:53.114Z,6.60
2022-10-19T18:39:20.479Z,10.10
2022-10-19T18:41:51.871Z,13.83
2022-10-19T18:44:23.619Z,11.80
2022-10-19T18:46:54.415Z,9.53
2022-10-19T18:49:21.461Z,9.83
2022-10-19T18:51:54.085Z,10.70
2022-10-19T18:54:22.729Z,8.23
2022-10-19T18:56:49.694Z,8.23
2022-10-19T18:59:16.867Z,6.63
2022-10-19T19:01:43.994Z,6.23
2022-10-19T19:04:11.749Z,6.63
2022-10-19T19:06:39.484Z,4.90
2022-10-19T19:09:10.351Z,9.03
2022-10-19T19:11:40.813Z,7.17
2022-10-19T19:14:15.414Z,8.30
2022-10-19T19:16:43.832Z,8.93
2022-10-19T19:19:12.860Z,11.97
2022-10-19T19:21:43.846Z,9.80
2022-10-19T19:24:22.171Z,7.47
2022-10-19T19:26:52.800Z,8.73
2022-10-19T19:29:20.910Z,10.60
2022-10-19T19:31:48.259Z,10.47
2022-10-19T19:34:15.316Z,6.07
2022-10-19T19:36:47.402Z,5.87
2022-10-19T19:39:18.631Z,7.70
2022-10-19T19:41:46.692Z,5.50
2022-10-19T19:44:13.660Z,6.33
2022-10-19T19:46:40.627Z,2.87
2022-10-19T19:49:07.620Z,5.80
2022-10-19T19:51:35.283Z,2.80
2022-10-19T19:54:02.351Z,2.50
2022-10-19T19:56:29.643Z,2.67
2022-10-19T19:58:58.441Z,4.70
2022-10-19T20:01:26.265Z,4.03
2022-10-19T20:03:53.395Z,2.20
2022-10-19T20:06:23.698Z,1.63
2022-10-19T20:08:53.588Z,8.50
2022-10-19T20:11:22.023Z,3.00
2022-10-19T20:13:49.389Z,3.40
2022-10-19T20:16:22.651Z,2.80
2022-10-19T20:18:55.773Z,4.17
2022-10-19T20:21:25.312Z,4.17
2022-10-19T20:23:52.293Z,6.40
2022-10-19T20:26:21.396Z,4.00
2022-10-19T20:28:48.744Z,2.20
2022-10-19T20:31:17.404Z,2.77
2022-10-19T20:33:47.334Z,1.73
2022-10-19T20:36:17.567Z,3.20
2022-10-19T20:38:52.703Z,3.73
2022-10-19T20:41:21.710Z,6.10
2022-10-19T20:43:49.487Z,2.77
2022-10-19T20:46:28.760Z,9.00
2022-10-19T20:48:59.607Z,3.57
2022-10-19T20:51:31.923Z,3.37
2022-10-19T20:54:01.036Z,4.20
2022-10-19T20:56:31.226Z,4.67
2022-10-19T20:59:11.299Z,0.83
2022-10-19T21:01:39.934Z,1.10
2022-10-19T21:04:08.896Z,3.30
2022-10-19T21:06:40.396Z,11.80
2022-10-19T21:09:08.916Z,12.97
2022-10-19T21:11:38.283Z,12.33
2022-10-19T21:14:17.208Z,17.73
2022-10-19T21:16:44.383Z,11.40
2022-10-19T21:19:17.757Z,20.40
2022-10-19T21:21:47.524Z,9.73
2022-10-19T21:24:20.462Z,9.90
2022-10-19T21:26:47.924Z,15.00
2022-10-19T21:29:15.659Z,12.93
2022-10-19T21:31:48.600Z,11.23
2022-10-19T21:34:28.340Z,6.50
2022-10-19T21:36:55.941Z,7.40
2022-10-19T21:39:23.109Z,5.83
2022-10-19T21:41:50.882Z,4.20
2022-10-19T21:44:19.064Z,4.70
2022-10-19T21:46:48.078Z,4.60
2022-10-19T21:49:15.252Z,1.87
2022-10-19T21:52:00.251Z,2.33
2022-10-19T21:54:29.198Z,2.07
2022-10-19T21:56:58.398Z,4.80
2022-10-19T21:59:25.502Z,2.57
2022-10-19T22:01:54.660Z,4.93
2022-10-19T22:04:22.326Z,4.73
2022-10-19T22:06:49.306Z,4.73
2022-10-19T22:09:19.498Z,6.47
2022-10-19T22:11:47.498Z,5.20
2022-10-19T22:14:15.901Z,3.90
2022-10-19T22:16:43.469Z,6.03
2022-10-19T22:19:11.093Z,8.53
2022-10-19T22:24:13.897Z,4.47
2022-10-19T22:26:43.808Z,2.30
2022-10-19T22:29:11.105Z,2.53
2022-10-19T22:31:38.160Z,1.80
2022-10-19T22:34:09.735Z,5.80
2022-10-19T22:36:37.013Z,2.20
2022-10-19T22:39:04.657Z,2.43
2022-10-19T22:42:28.153Z,2.10
2022-10-19T22:44:55.119Z,1.13
2022-10-19T22:47:22.302Z,3.10
2022-10-19T22:49:49.271Z,2.13
2022-10-19T22:52:16.719Z,0.80
2022-10-19T22:54:43.962Z,1.57
2022-10-19T22:57:11.884Z,3.23
2022-10-19T22:59:39.160Z,2.30
2022-10-19T23:02:06.156Z,1.13
2022-10-19T23:04:33.180Z,0.50
2022-10-19T23:07:00.250Z,3.27
2022-10-19T23:09:27.242Z,1.57
2022-10-19T23:11:54.224Z,0.73
2022-10-19T23:14:21.197Z,0.67
2022-10-19T23:16:48.202Z,0.87
2022-10-19T23:19:15.166Z,1.60
2022-10-19T23:21:42.146Z,0.67
2022-10-19T23:24:09.091Z,2.57
2022-10-19T23:26:36.979Z,1.37
2022-10-19T23:29:03.992Z,0.53
2022-10-19T23:31:32.808Z,0.67
2022-10-19T23:33:59.852Z,0.40
2022-10-19T23:36:28.788Z,1.07
2022-10-19T23:38:57.204Z,0.80
2022-10-19T23:41:24.620Z,0.50
2022-10-19T23:43:52.097Z,1.37
2022-10-19T23:46:19.182Z,2.00
2022-10-19T23:48:46.284Z,3.33
2022-10-19T23:51:15.589Z,3.37
2022-10-19T23:53:44.929Z,0.50
2022-10-19T23:56:15.783Z,1.60
2022-10-19T23:58:42.781Z,1.50
